sensor_id;sensor_type;location;lat;lon;timestamp;pressure;altitude;pressure_sealevel;temperature;humidity
60337;BME280;46978;50.288;28.624;2023-06-26T00:00:15;98629.37;;;15.29;100.00
60337;BME280;46978;50.288;28.624;2023-06-26T00:01:17;98625.09;;;15.28;100.00
60337;BME280;46978;50.288;28.624;2023-06-26T00:02:19;98628.62;;;15.27;100.00
60337;BME280;46978;50.288;28.624;2023-06-26T00:03:20;98629.53;;;15.26;100.00
60337;BME280;46978;50.288;28.624;2023-06-26T00:04:22;98633.16;;;15.23;100.00
60337;BME280;46978;50.288;28.624;2023-06-26T00:05:23;98634.91;;;15.22;100.00
60337;BME280;46978;50.288;28.624;2023-06-26T00:06:25;98639.30;;;15.22;100.00
60337;BME280;46978;50.288;28.624;2023-06-26T00:07:30;98633.23;;;15.21;100.00
60337;BME280;46978;50.288;28.624;2023-06-26T00:08:32;98634.98;;;15.21;100.00
60337;BME280;46978;50.288;28.624;2023-06-26T00:09:34;98632.44;;;15.19;100.00
60337;BME280;46978;50.288;28.624;2023-06-26T00:10:35;98630.77;;;15.18;100.00
60337;BME280;46978;50.288;28.624;2023-06-26T00:11:37;98636.83;;;15.19;100.00
60337;BME280;46978;50.288;28.624;2023-06-26T00:12:39;98636.08;;;15.17;100.00
60337;BME280;46978;50.288;28.624;2023-06-26T00:13:40;98636.00;;;15.18;100.00
60337;BME280;46978;50.288;28.624;2023-06-26T00:14:42;98633.38;;;15.18;100.00
60337;BME280;46978;50.288;28.624;2023-06-26T00:15:43;98635.13;;;15.18;100.00
60337;BME280;46978;50.288;28.624;2023-06-26T00:16:45;98631.61;;;15.19;100.00
60337;BME280;46978;50.288;28.624;2023-06-26T00:17:46;98634.30;;;15.17;100.00
60337;BME280;46978;50.288;28.624;2023-06-26T00:18:48;98635.20;;;15.16;100.00
60337;BME280;46978;50.288;28.624;2023-06-26T00:19:50;98626.60;;;15.14;100.00
60337;BME280;46978;50.288;28.624;2023-06-26T00:20:52;98630.13;;;15.13;100.00
60337;BME280;46978;50.288;28.624;2023-06-26T00:21:54;98635.43;;;15.12;100.00
60337;BME280;46978;50.288;28.624;2023-06-26T00:22:55;98637.28;;;15.10;100.00
60337;BME280;46978;50.288;28.624;2023-06-26T00:23:57;98634.66;;;15.10;100.00
60337;BME280;46978;50.288;28.624;2023-06-26T00:24:58;98631.30;;;15.08;100.00
60337;BME280;46978;50.288;28.624;2023-06-26T00:26:00;98638.27;;;15.07;100.00
60337;BME280;46978;50.288;28.624;2023-06-26T00:27:01;98633.04;;;15.07;100.00
60337;BME280;46978;50.288;28.624;2023-06-26T00:28:03;98631.36;;;15.06;100.00
60337;BME280;46978;50.288;28.624;2023-06-26T00:29:05;98631.36;;;15.06;100.00
60337;BME280;46978;50.288;28.624;2023-06-26T00:30:08;98628.68;;;15.08;100.00
60337;BME280;46978;50.288;28.624;2023-06-26T00:31:10;98627.81;;;15.07;100.00
60337;BME280;46978;50.288;28.624;2023-06-26T00:32:11;98626.06;;;15.08;100.00
60337;BME280;46978;50.288;28.624;2023-06-26T00:33:13;98626.91;;;15.08;100.00
60337;BME280;46978;50.288;28.624;2023-06-26T00:34:15;98629.44;;;15.10;100.00
60337;BME280;46978;50.288;28.624;2023-06-26T00:35:16;98621.60;;;15.10;100.00
60337;BME280;46978;50.288;28.624;2023-06-26T00:36:18;98624.14;;;15.11;100.00
60337;BME280;46978;50.288;28.624;2023-06-26T00:37:20;98622.44;;;15.10;100.00
60337;BME280;46978;50.288;28.624;2023-06-26T00:38:21;98623.45;;;15.08;100.00
60337;BME280;46978;50.288;28.624;2023-06-26T00:39:23;98617.51;;;15.04;100.00
60337;BME280;46978;50.288;28.624;2023-06-26T00:40:25;98621.06;;;15.03;100.00
60337;BME280;46978;50.288;28.624;2023-06-26T00:41:26;98613.22;;;15.03;100.00
60337;BME280;46978;50.288;28.624;2023-06-26T00:42:28;98617.51;;;15.04;100.00
60337;BME280;46978;50.288;28.624;2023-06-26T00:43:29;98614.89;;;15.04;100.00
60337;BME280;46978;50.288;28.624;2023-06-26T00:44:31;98618.45;;;15.03;100.00
60337;BME280;46978;50.288;28.624;2023-06-26T00:45:32;98612.36;;;15.02;100.00
60337;BME280;46978;50.288;28.624;2023-06-26T00:46:34;98613.30;;;15.01;100.00
60337;BME280;46978;50.288;28.624;2023-06-26T00:47:37;98608.22;;;14.98;100.00
60337;BME280;46978;50.288;28.624;2023-06-26T00:48:43;98609.06;;;14.99;100.00
60337;BME280;46978;50.288;28.624;2023-06-26T00:49:45;98611.74;;;14.97;100.00
60337;BME280;46978;50.288;28.624;2023-06-26T00:50:47;98610.98;;;14.95;100.00
60337;BME280;46978;50.288;28.624;2023-06-26T00:51:49;98608.37;;;14.95;100.00
60337;BME280;46978;50.288;28.624;2023-06-26T00:52:50;98608.44;;;14.94;100.00
60337;BME280;46978;50.288;28.624;2023-06-26T00:53:52;98607.65;;;14.92;100.00
60337;BME280;46978;50.288;28.624;2023-06-26T00:54:55;98609.50;;;14.90;100.00
60337;BME280;46978;50.288;28.624;2023-06-26T00:55:57;98606.13;;;14.87;100.00
60337;BME280;46978;50.288;28.624;2023-06-26T00:57:00;98607.03;;;14.86;100.00
60337;BME280;46978;50.288;28.624;2023-06-26T00:58:02;98610.62;;;14.84;100.00
60337;BME280;46978;50.288;28.624;2023-06-26T00:59:03;98612.48;;;14.82;100.00
60337;BME280;46978;50.288;28.624;2023-06-26T01:00:06;98607.47;;;14.77;100.00
60337;BME280;46978;50.288;28.624;2023-06-26T01:01:08;98612.77;;;14.76;100.00
60337;BME280;46978;50.288;28.624;2023-06-26T01:02:10;98611.14;;;14.73;100.00
60337;BME280;46978;50.288;28.624;2023-06-26T01:03:12;98609.53;;;14.70;100.00
60337;BME280;46978;50.288;28.624;2023-06-26T01:04:14;98612.22;;;14.69;100.00
60337;BME280;46978;50.288;28.624;2023-06-26T01:05:16;98605.37;;;14.66;100.00
60337;BME280;46978;50.288;28.624;2023-06-26T01:06:20;98608.95;;;14.64;100.00
60337;BME280;46978;50.288;28.624;2023-06-26T01:07:23;98608.27;;;14.60;100.00
60337;BME280;46978;50.288;28.624;2023-06-26T01:08:25;98601.38;;;14.58;100.00
60337;BME280;46978;50.288;28.624;2023-06-26T01:09:28;98607.55;;;14.57;100.00
60337;BME280;46978;50.288;28.624;2023-06-26T01:10:30;98605.07;;;14.53;100.00
60337;BME280;46978;50.288;28.624;2023-06-26T01:11:32;98599.92;;;14.52;100.00
60337;BME280;46978;50.288;28.624;2023-06-26T01:12:34;98601.84;;;14.48;100.00
60337;BME280;46978;50.288;28.624;2023-06-26T01:13:38;98597.59;;;14.46;100.00
60337;BME280;46978;50.288;28.624;2023-06-26T01:14:41;98598.58;;;14.43;100.00
60337;BME280;46978;50.288;28.624;2023-06-26T01:15:42;98600.42;;;14.41;100.00
60337;BME280;46978;50.288;28.624;2023-06-26T01:16:45;98597.95;;;14.38;100.00
60337;BME280;46978;50.288;28.624;2023-06-26T01:17:50;98597.95;;;14.38;100.00
60337;BME280;46978;50.288;28.624;2023-06-26T01:18:52;98600.63;;;14.37;100.00
60337;BME280;46978;50.288;28.624;2023-06-26T01:19:54;98593.78;;;14.34;100.00
60337;BME280;46978;50.288;28.624;2023-06-26T01:20:56;98599.06;;;14.32;100.00
60337;BME280;46978;50.288;28.624;2023-06-26T01:24:25;98600.22;;;14.27;100.00
60337;BME280;46978;50.288;28.624;2023-06-26T01:26:52;98593.43;;;14.23;100.00
60337;BME280;46978;50.288;28.624;2023-06-26T01:27:54;98589.98;;;14.22;100.00
60337;BME280;46978;50.288;28.624;2023-06-26T01:28:58;98592.66;;;14.21;100.00
60337;BME280;46978;50.288;28.624;2023-06-26T01:30:02;98595.41;;;14.18;100.00
60337;BME280;46978;50.288;28.624;2023-06-26T01:31:05;98597.16;;;14.17;100.00
60337;BME280;46978;50.288;28.624;2023-06-26T01:32:08;98598.92;;;14.16;100.00
60337;BME280;46978;50.288;28.624;2023-06-26T01:33:15;98590.33;;;14.14;100.00
60337;BME280;46978;50.288;28.624;2023-06-26T01:34:15;98593.02;;;14.13;100.00
60337;BME280;46978;50.288;28.624;2023-06-26T01:35:18;98584.38;;;14.11;100.00
60337;BME280;46978;50.288;28.624;2023-06-26T01:36:21;98593.15;;;14.10;100.00
60337;BME280;46978;50.288;28.624;2023-06-26T01:37:23;98590.67;;;14.07;100.00
60337;BME280;46978;50.288;28.624;2023-06-26T01:38:25;98587.27;;;14.05;100.00
60337;BME280;46978;50.288;28.624;2023-06-26T01:39:26;98590.81;;;14.04;100.00
60337;BME280;46978;50.288;28.624;2023-06-26T01:40:28;98593.49;;;14.02;100.00
60337;BME280;46978;50.288;28.624;2023-06-26T01:41:30;98585.66;;;14.02;100.00
60337;BME280;46978;50.288;28.624;2023-06-26T01:42:33;98588.27;;;14.02;100.00
60337;BME280;46978;50.288;28.624;2023-06-26T01:44:53;98583.96;;;14.01;100.00
60337;BME280;46978;50.288;28.624;2023-06-26T01:45:59;98585.80;;;13.99;100.00
60337;BME280;46978;50.288;28.624;2023-06-26T01:47:04;98588.48;;;13.97;100.00
60337;BME280;46978;50.288;28.624;2023-06-26T01:48:06;98592.89;;;13.95;100.00
60337;BME280;46978;50.288;28.624;2023-06-26T01:49:16;98586.91;;;13.93;100.00
60337;BME280;46978;50.288;28.624;2023-06-26T01:50:24;98590.49;;;13.91;100.00
60337;BME280;46978;50.288;28.624;2023-06-26T01:51:30;98583.67;;;13.88;100.00
60337;BME280;46978;50.288;28.624;2023-06-26T01:53:45;98584.71;;;13.84;100.00
60337;BME280;46978;50.288;28.624;2023-06-26T01:55:07;98582.17;;;13.83;100.00
60337;BME280;46978;50.288;28.624;2023-06-26T01:56:12;98583.08;;;13.81;100.00
60337;BME280;46978;50.288;28.624;2023-06-26T01:57:15;98580.47;;;13.81;100.00
60337;BME280;46978;50.288;28.624;2023-06-26T01:58:21;98585.75;;;13.80;100.00
60337;BME280;46978;50.288;28.624;2023-06-26T01:59:24;98588.42;;;13.78;100.00
60337;BME280;46978;50.288;28.624;2023-06-26T02:00:27;98584.14;;;13.77;100.00
60337;BME280;46978;50.288;28.624;2023-06-26T02:01:30;98585.88;;;13.77;100.00
60337;BME280;46978;50.288;28.624;2023-06-26T02:02:31;98585.95;;;13.75;100.00
60337;BME280;46978;50.288;28.624;2023-06-26T02:03:33;98585.11;;;13.75;100.00
60337;BME280;46978;50.288;28.624;2023-06-26T02:04:34;98589.49;;;13.74;100.00
60337;BME280;46978;50.288;28.624;2023-06-26T02:05:36;98586.81;;;13.76;100.00
60337;BME280;46978;50.288;28.624;2023-06-26T02:06:38;98591.09;;;13.77;100.00
60337;BME280;46978;50.288;28.624;2023-06-26T02:07:40;98593.77;;;13.75;100.00
60337;BME280;46978;50.288;28.624;2023-06-26T02:08:42;98594.70;;;13.74;100.00
60337;BME280;46978;50.288;28.624;2023-06-26T02:09:43;98589.42;;;13.76;100.00
60337;BME280;46978;50.288;28.624;2023-06-26T02:10:45;98587.72;;;13.75;100.00
60337;BME280;46978;50.288;28.624;2023-06-26T02:11:47;98588.55;;;13.75;100.00
60337;BME280;46978;50.288;28.624;2023-06-26T02:12:48;98589.42;;;13.76;100.00
60337;BME280;46978;50.288;28.624;2023-06-26T02:13:50;98602.39;;;13.77;100.00
60337;BME280;46978;50.288;28.624;2023-06-26T02:14:51;98594.70;;;13.74;100.00
60337;BME280;46978;50.288;28.624;2023-06-26T02:15:53;98597.31;;;13.74;100.00
60337;BME280;46978;50.288;28.624;2023-06-26T02:16:55;98596.38;;;13.75;100.00
60337;BME280;46978;50.288;28.624;2023-06-26T02:17:56;98598.15;;;13.75;100.00
60337;BME280;46978;50.288;28.624;2023-06-26T02:18:58;98600.69;;;13.76;100.00
60337;BME280;46978;50.288;28.624;2023-06-26T02:19:59;98596.38;;;13.75;100.00
60337;BME280;46978;50.288;28.624;2023-06-26T02:21:03;98597.18;;;13.77;100.00
60337;BME280;46978;50.288;28.624;2023-06-26T02:22:05;98596.25;;;13.78;100.00
60337;BME280;46978;50.288;28.624;2023-06-26T02:23:06;98599.72;;;13.79;100.00
60337;BME280;46978;50.288;28.624;2023-06-26T02:24:08;98595.41;;;13.78;100.00
60337;BME280;46978;50.288;28.624;2023-06-26T02:25:10;98592.80;;;13.78;100.00
60337;BME280;46978;50.288;28.624;2023-06-26T02:26:12;98598.02;;;13.78;100.00
60337;BME280;46978;50.288;28.624;2023-06-26T02:27:13;98585.81;;;13.78;100.00
60337;BME280;46978;50.288;28.624;2023-06-26T02:28:15;98593.50;;;13.81;100.00
60337;BME280;46978;50.288;28.624;2023-06-26T02:29:16;98588.28;;;13.81;100.00
60337;BME280;46978;50.288;28.624;2023-06-26T02:30:18;98595.98;;;13.85;100.00
60337;BME280;46978;50.288;28.624;2023-06-26T02:31:20;98593.23;;;13.88;100.00
60337;BME280;46978;50.288;28.624;2023-06-26T02:32:21;98589.72;;;13.89;100.00
60337;BME280;46978;50.288;28.624;2023-06-26T02:33:23;98590.49;;;13.91;100.00
60337;BME280;46978;50.288;28.624;2023-06-26T02:34:25;98592.20;;;13.92;100.00
60337;BME280;46978;50.288;28.624;2023-06-26T02:35:26;98586.08;;;13.93;100.00
60337;BME280;46978;50.288;28.624;2023-06-26T02:36:28;98586.84;;;13.95;100.00
60337;BME280;46978;50.288;28.624;2023-06-26T02:37:30;98590.22;;;13.97;100.00
60337;BME280;46978;50.288;28.624;2023-06-26T02:38:31;98581.42;;;13.99;100.00
60337;BME280;46978;50.288;28.624;2023-06-26T02:39:34;98585.66;;;14.02;100.00
60337;BME280;46978;50.288;28.624;2023-06-26T02:40:36;98586.36;;;14.06;100.00
60337;BME280;46978;50.288;28.624;2023-06-26T02:41:37;98585.33;;;14.10;100.00
60337;BME280;46978;50.288;28.624;2023-06-26T02:42:39;98579.97;;;14.13;100.00
60337;BME280;46978;50.288;28.624;2023-06-26T02:43:40;98584.98;;;14.18;100.00
60337;BME280;46978;50.288;28.624;2023-06-26T02:44:42;98588.28;;;14.21;100.00
60337;BME280;46978;50.288;28.624;2023-06-26T02:45:44;98586.23;;;14.28;100.00
60337;BME280;46978;50.288;28.624;2023-06-26T02:46:45;98589.28;;;14.38;100.00
60337;BME280;46978;50.288;28.624;2023-06-26T02:47:47;98598.00;;;14.56;100.00
60337;BME280;46978;50.288;28.624;2023-06-26T02:48:48;98594.56;;;14.74;100.00
60337;BME280;46978;50.288;28.624;2023-06-26T02:49:50;98583.84;;;14.98;100.00
60337;BME280;46978;50.288;28.624;2023-06-26T02:50:51;98585.97;;;15.26;100.00
60337;BME280;46978;50.288;28.624;2023-06-26T02:51:53;98581.64;;;15.60;100.00
60337;BME280;46978;50.288;28.624;2023-06-26T02:52:54;98583.37;;;15.94;100.00
60337;BME280;46978;50.288;28.624;2023-06-26T02:53:56;98587.56;;;16.30;100.00
60337;BME280;46978;50.288;28.624;2023-06-26T02:54:58;98581.39;;;16.63;100.00
60337;BME280;46978;50.288;28.624;2023-06-26T02:55:59;98580.92;;;16.89;98.53
60337;BME280;46978;50.288;28.624;2023-06-26T02:57:01;98577.82;;;17.12;97.73
60337;BME280;46978;50.288;28.624;2023-06-26T02:58:02;98583.30;;;17.38;97.41
60337;BME280;46978;50.288;28.624;2023-06-26T02:59:04;98583.55;;;17.64;94.99
60337;BME280;46978;50.288;28.624;2023-06-26T03:00:07;98578.47;;;17.91;94.30
60337;BME280;46978;50.288;28.624;2023-06-26T03:01:09;98585.38;;;18.21;93.35
60337;BME280;46978;50.288;28.624;2023-06-26T03:02:10;98587.02;;;18.51;91.12
60337;BME280;46978;50.288;28.624;2023-06-26T03:03:12;98580.94;;;18.77;89.90
60337;BME280;46978;50.288;28.624;2023-06-26T03:04:14;98572.66;;;18.98;86.60
60337;BME280;46978;50.288;28.624;2023-06-26T03:05:15;98579.43;;;19.15;83.80
60337;BME280;46978;50.288;28.624;2023-06-26T03:06:17;98583.42;;;19.21;81.57
60337;BME280;46978;50.288;28.624;2023-06-26T03:07:18;98575.68;;;19.32;82.17
60337;BME280;46978;50.288;28.624;2023-06-26T03:08:20;98578.42;;;19.43;80.68
60337;BME280;46978;50.288;28.624;2023-06-26T03:09:21;98580.12;;;19.57;79.58
60337;BME280;46978;50.288;28.624;2023-06-26T03:10:23;98574.75;;;19.71;80.73
60337;BME280;46978;50.288;28.624;2023-06-26T03:11:25;98577.09;;;19.89;78.57
60337;BME280;46978;50.288;28.624;2023-06-26T03:12:26;98577.72;;;20.05;78.54
60337;BME280;46978;50.288;28.624;2023-06-26T03:13:28;98581.41;;;20.16;76.58
60337;BME280;46978;50.288;28.624;2023-06-26T03:14:29;98582.02;;;20.19;75.26
60337;BME280;46978;50.288;28.624;2023-06-26T03:15:31;98576.31;;;20.26;74.78
60337;BME280;46978;50.288;28.624;2023-06-26T03:16:32;98579.67;;;20.28;73.46
60337;BME280;46978;50.288;28.624;2023-06-26T03:17:34;98586.13;;;20.23;73.24
60337;BME280;46978;50.288;28.624;2023-06-26T03:18:35;98576.31;;;20.26;73.89
60337;BME280;46978;50.288;28.624;2023-06-26T03:19:37;98586.09;;;20.36;74.27
60337;BME280;46978;50.288;28.624;2023-06-26T03:20:39;98583.02;;;20.42;72.92
60337;BME280;46978;50.288;28.624;2023-06-26T03:21:40;98581.20;;;20.56;74.09
60337;BME280;46978;50.288;28.624;2023-06-26T03:22:42;98589.14;;;20.80;74.04
60337;BME280;46978;50.288;28.624;2023-06-26T03:23:43;98582.64;;;20.97;72.19
60337;BME280;46978;50.288;28.624;2023-06-26T03:24:45;98577.92;;;21.13;71.03
60337;BME280;46978;50.288;28.624;2023-06-26T03:25:47;98579.02;;;21.22;69.41
60337;BME280;46978;50.288;28.624;2023-06-26T03:26:49;98577.34;;;21.21;67.74
60337;BME280;46978;50.288;28.624;2023-06-26T03:27:51;98572.42;;;21.17;69.39
60337;BME280;46978;50.288;28.624;2023-06-26T03:28:53;98571.50;;;21.29;70.39
60337;BME280;46978;50.288;28.624;2023-06-26T03:29:55;98569.13;;;21.48;68.46
60337;BME280;46978;50.288;28.624;2023-06-26T03:30:56;98571.29;;;21.43;66.25
60337;BME280;46978;50.288;28.624;2023-06-26T03:31:58;98572.67;;;21.25;66.41
60337;BME280;46978;50.288;28.624;2023-06-26T03:33:00;98573.28;;;21.28;67.53
60337;BME280;46978;50.288;28.624;2023-06-26T03:34:01;98574.02;;;21.30;67.27
60337;BME280;46978;50.288;28.624;2023-06-26T03:35:03;98576.89;;;21.27;67.18
60337;BME280;46978;50.288;28.624;2023-06-26T03:36:05;98571.75;;;21.37;67.82
60337;BME280;46978;50.288;28.624;2023-06-26T03:37:07;98572.91;;;21.57;66.80
60337;BME280;46978;50.288;28.624;2023-06-26T03:38:09;98568.39;;;21.71;65.48
60337;BME280;46978;50.288;28.624;2023-06-26T03:39:11;98565.86;;;21.80;65.66
60337;BME280;46978;50.288;28.624;2023-06-26T03:40:14;98564.91;;;22.04;65.38
60337;BME280;46978;50.288;28.624;2023-06-26T03:41:15;98563.72;;;21.97;62.85
60337;BME280;46978;50.288;28.624;2023-06-26T03:42:17;98570.31;;;22.02;64.03
60337;BME280;46978;50.288;28.624;2023-06-26T03:43:18;98574.50;;;21.82;62.17
60337;BME280;46978;50.288;28.624;2023-06-26T03:44:22;98567.64;;;21.69;62.97
60337;BME280;46978;50.288;28.624;2023-06-26T03:45:23;98576.78;;;21.64;63.22
60337;BME280;46978;50.288;28.624;2023-06-26T03:46:25;98570.51;;;21.54;62.93
60337;BME280;46978;50.288;28.624;2023-06-26T03:47:27;98564.28;;;21.66;64.30
60337;BME280;46978;50.288;28.624;2023-06-26T03:48:28;98568.39;;;21.82;64.81
60337;BME280;46978;50.288;28.624;2023-06-26T03:49:30;98568.77;;;22.00;62.42
60337;BME280;46978;50.288;28.624;2023-06-26T03:50:31;98576.20;;;22.17;62.82
60337;BME280;46978;50.288;28.624;2023-06-26T03:51:33;98573.83;;;22.37;62.40
60337;BME280;46978;50.288;28.624;2023-06-26T03:52:35;98572.23;;;22.46;60.63
60337;BME280;46978;50.288;28.624;2023-06-26T03:53:36;98572.69;;;22.51;60.38
60337;BME280;46978;50.288;28.624;2023-06-26T03:54:38;98570.91;;;22.40;60.30
60337;BME280;46978;50.288;28.624;2023-06-26T03:55:39;98572.47;;;22.43;59.02
60337;BME280;46978;50.288;28.624;2023-06-26T03:56:41;98578.84;;;22.40;59.14
60337;BME280;46978;50.288;28.624;2023-06-26T03:57:43;98568.87;;;22.44;60.56
60337;BME280;46978;50.288;28.624;2023-06-26T03:58:44;98576.81;;;22.44;59.26
60337;BME280;46978;50.288;28.624;2023-06-26T03:59:46;98576.53;;;22.58;59.76
60337;BME280;46978;50.288;28.624;2023-06-26T04:00:48;98572.56;;;22.64;58.65
60337;BME280;46978;50.288;28.624;2023-06-26T04:01:49;98577.48;;;22.57;58.41
60337;BME280;46978;50.288;28.624;2023-06-26T04:02:51;98576.99;;;22.63;59.14
60337;BME280;46978;50.288;28.624;2023-06-26T04:03:52;98575.67;;;22.69;59.09
60337;BME280;46978;50.288;28.624;2023-06-26T04:04:54;98572.52;;;22.75;58.05
60337;BME280;46978;50.288;28.624;2023-06-26T04:05:55;98574.42;;;22.84;58.24
60337;BME280;46978;50.288;28.624;2023-06-26T04:06:57;98570.05;;;22.62;57.28
60337;BME280;46978;50.288;28.624;2023-06-26T04:07:58;98577.73;;;22.54;58.37
60337;BME280;46978;50.288;28.624;2023-06-26T04:09:00;98575.14;;;22.31;57.67
60337;BME280;46978;50.288;28.624;2023-06-26T04:10:02;98579.33;;;22.11;58.69
60337;BME280;46978;50.288;28.624;2023-06-26T04:11:04;98577.66;;;22.22;58.57
60337;BME280;46978;50.288;28.624;2023-06-26T04:12:06;98575.23;;;22.07;58.27
60337;BME280;46978;50.288;28.624;2023-06-26T04:13:08;98572.48;;;22.20;59.40
60337;BME280;46978;50.288;28.624;2023-06-26T04:14:09;98576.71;;;22.34;59.13
60337;BME280;46978;50.288;28.624;2023-06-26T04:15:11;98572.02;;;22.37;58.16
60337;BME280;46978;50.288;28.624;2023-06-26T04:16:13;98563.95;;;22.05;57.10
60337;BME280;46978;50.288;28.624;2023-06-26T04:17:14;98572.84;;;22.15;58.34
60337;BME280;46978;50.288;28.624;2023-06-26T04:18:16;98571.29;;;22.01;58.55
60337;BME280;46978;50.288;28.624;2023-06-26T04:19:17;98573.08;;;22.24;58.61
60337;BME280;46978;50.288;28.624;2023-06-26T04:20:19;98573.31;;;22.20;58.13
60337;BME280;46978;50.288;28.624;2023-06-26T04:21:21;98575.61;;;22.14;58.63
60337;BME280;46978;50.288;28.624;2023-06-26T04:22:22;98571.88;;;22.28;57.03
60337;BME280;46978;50.288;28.624;2023-06-26T04:23:24;98566.97;;;22.34;57.61
60337;BME280;46978;50.288;28.624;2023-06-26T04:24:26;98566.70;;;22.49;58.03
60337;BME280;46978;50.288;28.624;2023-06-26T04:25:27;98577.27;;;22.15;57.15
60337;BME280;46978;50.288;28.624;2023-06-26T04:26:29;98572.25;;;22.23;57.37
60337;BME280;46978;50.288;28.624;2023-06-26T04:27:31;98572.73;;;22.17;57.67
60337;BME280;46978;50.288;28.624;2023-06-26T04:28:33;98571.38;;;22.23;57.80
60337;BME280;46978;50.288;28.624;2023-06-26T04:29:35;98572.72;;;22.40;57.81
60337;BME280;46978;50.288;28.624;2023-06-26T04:30:36;98581.11;;;22.56;57.55
60337;BME280;46978;50.288;28.624;2023-06-26T04:31:38;98577.88;;;22.30;56.76
60337;BME280;46978;50.288;28.624;2023-06-26T04:32:40;98576.55;;;22.24;57.48
60337;BME280;46978;50.288;28.624;2023-06-26T04:33:41;98574.15;;;22.21;57.73
60337;BME280;46978;50.288;28.624;2023-06-26T04:34:43;98581.95;;;22.23;57.44
60337;BME280;46978;50.288;28.624;2023-06-26T04:35:45;98579.94;;;22.37;56.99
60337;BME280;46978;50.288;28.624;2023-06-26T04:36:46;98573.44;;;22.19;56.78
60337;BME280;46978;50.288;28.624;2023-06-26T04:37:48;98574.41;;;21.95;58.04
60337;BME280;46978;50.288;28.624;2023-06-26T04:38:49;98570.55;;;21.88;57.69
60337;BME280;46978;50.288;28.624;2023-06-26T04:39:51;98573.55;;;21.83;57.59
60337;BME280;46978;50.288;28.624;2023-06-26T04:40:53;98572.25;;;21.89;58.10
60337;BME280;46978;50.288;28.624;2023-06-26T04:41:54;98565.27;;;21.88;57.50
60337;BME280;46978;50.288;28.624;2023-06-26T04:42:56;98566.84;;;21.91;57.70
60337;BME280;46978;50.288;28.624;2023-06-26T04:43:57;98565.03;;;21.80;56.86
60337;BME280;46978;50.288;28.624;2023-06-26T04:44:59;98554.95;;;21.74;57.07
60337;BME280;46978;50.288;28.624;2023-06-26T04:46:02;98558.30;;;21.76;58.07
60337;BME280;46978;50.288;28.624;2023-06-26T04:47:04;98559.04;;;21.89;58.62
60337;BME280;46978;50.288;28.624;2023-06-26T04:48:05;98560.11;;;21.87;57.53
60337;BME280;46978;50.288;28.624;2023-06-26T04:49:10;98559.87;;;21.78;56.82
60337;BME280;46978;50.288;28.624;2023-06-26T04:50:13;98561.30;;;21.82;57.30
60337;BME280;46978;50.288;28.624;2023-06-26T04:51:14;98566.58;;;21.71;57.49
60337;BME280;46978;50.288;28.624;2023-06-26T04:52:16;98564.52;;;21.52;57.52
60337;BME280;46978;50.288;28.624;2023-06-26T04:53:17;98564.90;;;21.35;58.59
60337;BME280;46978;50.288;28.624;2023-06-26T04:54:19;98565.48;;;21.27;58.05
60337;BME280;46978;50.288;28.624;2023-06-26T04:55:21;98562.81;;;21.16;57.73
60337;BME280;46978;50.288;28.624;2023-06-26T04:56:22;98572.88;;;21.10;59.06
60337;BME280;46978;50.288;28.624;2023-06-26T04:57:24;98573.70;;;21.11;59.18
60337;BME280;46978;50.288;28.624;2023-06-26T04:58:25;98572.38;;;21.05;59.03
60337;BME280;46978;50.288;28.624;2023-06-26T04:59:27;98573.17;;;20.94;58.63
60337;BME280;46978;50.288;28.624;2023-06-26T05:00:28;98569.48;;;20.73;59.53
60337;BME280;46978;50.288;28.624;2023-06-26T05:01:32;98566.83;;;20.60;60.10
60337;BME280;46978;50.288;28.624;2023-06-26T05:02:34;98569.69;;;20.57;60.21
60337;BME280;46978;50.288;28.624;2023-06-26T05:03:36;98572.66;;;20.52;60.23
60337;BME280;46978;50.288;28.624;2023-06-26T05:04:37;98566.16;;;20.45;60.72
60337;BME280;46978;50.288;28.624;2023-06-26T05:05:39;98568.05;;;20.43;61.21
60337;BME280;46978;50.288;28.624;2023-06-26T05:06:41;98564.36;;;20.46;61.37
60337;BME280;46978;50.288;28.624;2023-06-26T05:07:42;98563.97;;;20.39;62.26
60337;BME280;46978;50.288;28.624;2023-06-26T05:08:44;98568.37;;;20.38;60.57
60337;BME280;46978;50.288;28.624;2023-06-26T05:09:46;98561.44;;;20.37;61.11
60337;BME280;46978;50.288;28.624;2023-06-26T05:10:48;98565.84;;;20.37;61.83
60337;BME280;46978;50.288;28.624;2023-06-26T05:11:50;98564.19;;;20.36;62.40
60337;BME280;46978;50.288;28.624;2023-06-26T05:12:51;98561.98;;;20.30;61.99
60337;BME280;46978;50.288;28.624;2023-06-26T05:13:53;98563.87;;;20.28;62.69
60337;BME280;46978;50.288;28.624;2023-06-26T05:14:54;98564.41;;;20.33;62.37
60337;BME280;46978;50.288;28.624;2023-06-26T05:15:56;98556.50;;;20.33;62.84
60337;BME280;46978;50.288;28.624;2023-06-26T05:16:57;98559.89;;;20.22;62.11
60337;BME280;46978;50.288;28.624;2023-06-26T05:17:59;98559.79;;;20.23;63.49
60337;BME280;46978;50.288;28.624;2023-06-26T05:19:01;98566.11;;;20.21;62.77
60337;BME280;46978;50.288;28.624;2023-06-26T05:20:03;98560.52;;;20.26;63.38
60337;BME280;46978;50.288;28.624;2023-06-26T05:21:06;98559.79;;;20.23;62.25
60337;BME280;46978;50.288;28.624;2023-06-26T05:22:08;98566.11;;;20.21;62.11
60337;BME280;46978;50.288;28.624;2023-06-26T05:23:12;98557.44;;;20.32;63.20
60337;BME280;46978;50.288;28.624;2023-06-26T05:24:15;98553.93;;;20.44;61.51
60337;BME280;46978;50.288;28.624;2023-06-26T05:25:18;98553.93;;;20.44;61.51
60337;BME280;46978;50.288;28.624;2023-06-26T05:26:21;98559.64;;;20.38;61.19
60337;BME280;46978;50.288;28.624;2023-06-26T05:27:23;98571.16;;;20.24;61.60
60337;BME280;46978;50.288;28.624;2023-06-26T05:28:25;98568.13;;;20.17;60.52